Time;durP1;ratioP1;P1;durP2;ratioP2;P2;SDS_P1;SDS_P2;PMS_P1;PMS_P2;Temp;Humidity;BMP_temperature;BMP_pressure;BME280_temperature;BME280_humidity;BME280_pressure;Samples;Min_cycle;Max_cycle;Signal;HPM_P1;HPM_P2
2023/08/29 00:00:18;;;;;;;2.72;1.80;;;;;;;-145.00;84.96;73013.81;5042889;28;20052;-78
2023/08/29 00:02:44;;;;;;;1.98;1.73;;;;;;;-145.00;85.34;73022.13;5043347;28;20041;-77
2023/08/29 00:05:12;;;;;;;2.53;1.92;;;;;;;-145.00;85.33;73022.13;5038852;28;20055;-78
2023/08/29 00:07:39;;;;;;;2.45;1.80;;;;;;;-145.00;85.29;73009.66;5052527;28;20045;-78
2023/08/29 00:10:07;;;;;;;1.95;1.60;;;;;;;-145.00;85.55;73015.88;5043560;28;20047;-78
2023/08/29 00:12:33;;;;;;;3.60;2.13;;;;;;;-145.00;84.76;73007.56;5049971;28;20040;-79
2023/08/29 00:15:00;;;;;;;3.40;2.10;;;;;;;-145.00;84.74;73011.72;5052105;28;20045;-80
2023/08/29 00:17:41;;;;;;;2.53;1.95;;;;;;;-145.00;85.59;73034.63;5051685;28;20045;-80
2023/08/29 00:20:10;;;;;;;2.65;1.67;;;;;;;-145.00;85.90;73022.13;5051927;28;20041;-80
2023/08/29 00:22:36;;;;;;;3.22;2.13;;;;;;;-145.00;85.67;73017.97;5052157;28;20045;-80
2023/08/29 00:25:03;;;;;;;3.25;2.10;;;;;;;-145.00;85.28;73013.81;5049707;28;20056;-79
2023/08/29 00:27:30;;;;;;;2.90;1.90;;;;;;;-145.00;85.16;73005.47;5047518;28;20077;-80
2023/08/29 00:29:56;;;;;;;2.70;1.85;;;;;;;-145.00;85.29;73001.31;5042563;28;20046;-79
2023/08/29 00:32:24;;;;;;;2.97;2.10;;;;;;;-145.00;85.19;73005.47;5044323;28;20049;-80
2023/08/29 00:34:52;;;;;;;2.88;2.33;;;;;;;-145.00;85.41;73001.31;5051857;28;20049;-80
2023/08/29 00:37:19;;;;;;;2.35;1.80;;;;;;;-145.00;85.35;73005.47;5051685;28;20037;-80
2023/08/29 00:39:45;;;;;;;2.67;1.95;;;;;;;-145.00;85.21;72997.16;5051336;28;20051;-80
2023/08/29 00:42:12;;;;;;;2.13;1.80;;;;;;;-145.00;84.77;73003.41;5037894;28;20049;-80
2023/08/29 00:44:39;;;;;;;2.63;1.90;;;;;;;-145.00;85.14;73009.66;5052123;28;20044;-79
2023/08/29 00:47:08;;;;;;;2.58;1.90;;;;;;;-145.00;85.25;73005.47;5053612;28;20070;-79
2023/08/29 00:49:35;;;;;;;2.70;1.90;;;;;;;-145.00;85.18;73015.88;5045973;28;20053;-79
2023/08/29 00:52:05;;;;;;;3.15;2.17;;;;;;;-145.00;85.49;73026.31;5051386;28;20091;-78
2023/08/29 00:54:32;;;;;;;2.67;2.15;;;;;;;-145.00;85.72;73030.47;5052227;28;20037;-79
2023/08/29 00:57:00;;;;;;;3.13;2.20;;;;;;;-145.00;85.74;73028.38;5044966;28;20049;-79
2023/08/29 00:59:27;;;;;;;4.35;2.65;;;;;;;-145.00;85.76;73030.47;5042438;28;20044;-79
2023/08/29 01:01:54;;;;;;;3.53;2.55;;;;;;;-145.00;85.33;73034.63;5049140;28;20566;-79
2023/08/29 01:04:20;;;;;;;2.90;2.38;;;;;;;-145.00;85.18;73022.13;5051791;28;20047;-79
2023/08/29 01:06:47;;;;;;;2.70;2.20;;;;;;;-145.00;85.44;73013.81;5043510;28;20045;-79
2023/08/29 01:09:18;;;;;;;2.83;2.30;;;;;;;-145.00;84.99;73020.06;5046210;28;20045;-80
2023/08/29 01:11:54;;;;;;;3.17;2.10;;;;;;;-145.00;85.44;73024.22;5045090;28;20040;-79
2023/08/29 01:14:36;;;;;;;2.63;2.03;;;;;;;-145.00;85.33;73034.63;5045194;28;20045;-80
2023/08/29 01:17:14;;;;;;;2.20;1.80;;;;;;;-145.00;85.86;73042.97;5046804;28;20682;-77
2023/08/29 01:19:44;;;;;;;2.45;2.05;;;;;;;-145.00;85.58;73065.84;5011840;28;20046;-80
2023/08/29 01:22:28;;;;;;;2.67;2.17;;;;;;;-145.00;86.24;73063.78;5050292;28;20055;-79
2023/08/29 01:25:11;;;;;;;4.18;2.45;;;;;;;-145.00;86.36;73061.69;5034467;28;20817;-78
2023/08/29 01:27:41;;;;;;;2.33;1.90;;;;;;;-145.00;86.75;73078.34;5041213;28;20115;-80
2023/08/29 01:30:10;;;;;;;4.65;1.90;;;;;;;-145.00;87.09;73101.25;5040500;28;20045;-79
2023/08/29 01:32:40;;;;;;;4.13;1.95;;;;;;;-145.00;87.17;73117.91;5039726;28;20076;-77
2023/08/29 01:35:08;;;;;;;2.10;1.80;;;;;;;-145.00;88.07;73134.56;5050124;28;20070;-78
2023/08/29 01:37:34;;;;;;;2.58;2.05;;;;;;;-145.00;88.16;73138.72;5042843;28;20116;-80
2023/08/29 01:40:01;;;;;;;2.70;2.15;;;;;;;-145.00;88.30;73138.72;5034528;28;20041;-79
2023/08/29 01:42:28;;;;;;;2.40;1.80;;;;;;;-145.00;87.92;73128.31;5038735;28;20052;-80
2023/08/29 01:44:55;;;;;;;2.47;1.95;;;;;;;-145.00;88.12;73144.97;5029021;28;20067;-80
2023/08/29 01:47:22;;;;;;;2.92;2.05;;;;;;;-145.00;88.44;73147.06;5038982;28;20054;-79
2023/08/29 01:49:50;;;;;;;2.95;2.20;;;;;;;-145.00;88.56;73151.22;5044154;28;20047;-79
2023/08/29 01:52:16;;;;;;;2.30;2.00;;;;;;;-145.00;88.54;73147.06;5035186;28;20041;-78
2023/08/29 01:54:43;;;;;;;2.55;2.30;;;;;;;-145.00;88.08;73130.41;5052112;28;20073;-79
2023/08/29 01:57:12;;;;;;;3.25;2.63;;;;;;;-145.00;87.25;73142.88;5043019;28;20046;-79
2023/08/29 01:59:39;;;;;;;3.30;2.15;;;;;;;-145.00;86.73;73144.97;5047099;28;20065;-78
2023/08/29 02:02:08;;;;;;;3.28;2.38;;;;;;;-145.00;86.31;73151.22;5042835;28;20052;-79
2023/08/29 02:04:34;;;;;;;2.30;1.90;;;;;;;-145.00;86.28;73159.53;5026717;28;20041;-79
2023/08/29 02:07:01;;;;;;;2.25;1.52;;;;;;;-145.00;87.11;73176.19;5040093;28;20045;-79
2023/08/29 02:09:27;;;;;;;1.98;1.60;;;;;;;-145.00;87.40;73174.13;5035865;28;20377;-79
2023/08/29 02:11:55;;;;;;;3.13;1.73;;;;;;;-145.00;87.51;73184.53;5042255;28;20051;-78
2023/08/29 02:14:21;;;;;;;3.35;1.77;;;;;;;-145.00;87.93;73192.84;5051116;28;20164;-79
2023/08/29 02:16:48;;;;;;;2.03;1.70;;;;;;;-145.00;88.14;73176.19;5051663;28;20063;-78
2023/08/29 02:19:16;;;;;;;2.17;1.70;;;;;;;-145.00;87.99;73167.88;5031810;28;20060;-79
2023/08/29 02:21:42;;;;;;;2.03;1.48;;;;;;;-145.00;87.71;73159.53;5045157;28;20047;-80
2023/08/29 02:24:09;;;;;;;2.72;1.80;;;;;;;-145.00;87.07;73165.78;5053034;28;20048;-79
2023/08/29 02:26:35;;;;;;;3.65;1.60;;;;;;;-145.00;86.59;73165.78;5046455;28;20063;-79
2023/08/29 02:29:02;;;;;;;3.22;1.40;;;;;;;-145.00;86.86;73169.94;5049938;28;20052;-77
2023/08/29 02:31:28;;;;;;;2.22;1.70;;;;;;;-145.00;86.82;73167.88;5048373;28;20049;-79
2023/08/29 02:33:55;;;;;;;2.13;1.50;;;;;;;-145.00;86.77;73163.72;5049251;28;20055;-77
2023/08/29 02:36:23;;;;;;;1.95;1.50;;;;;;;-145.00;86.73;73165.78;5036383;28;20053;-79
2023/08/29 02:38:53;;;;;;;1.90;1.50;;;;;;;-145.00;86.61;73157.47;5052280;28;20045;-80
2023/08/29 02:41:19;;;;;;;2.17;1.75;;;;;;;-145.00;86.39;73155.38;5041966;28;20064;-80
2023/08/29 02:43:46;;;;;;;2.17;1.75;;;;;;;-145.00;86.20;73149.13;5053526;28;20580;-79
2023/08/29 02:46:12;;;;;;;2.03;1.70;;;;;;;-145.00;86.31;73159.53;5052434;28;20041;-79
2023/08/29 02:48:39;;;;;;;2.70;1.80;;;;;;;-145.00;86.55;73167.88;5053093;28;20049;-78
2023/08/29 02:51:05;;;;;;;4.25;2.13;;;;;;;-145.00;86.42;73151.22;5050179;28;20055;-79
2023/08/29 02:53:33;;;;;;;1.98;1.70;;;;;;;-145.00;86.43;73172.03;5054614;28;20048;-78
2023/08/29 02:56:00;;;;;;;2.10;1.55;;;;;;;-145.00;86.92;73174.13;5039650;28;20113;-79
2023/08/29 02:58:26;;;;;;;2.22;1.70;;;;;;;-145.00;87.22;73176.19;5042405;28;20041;-78
2023/08/29 03:00:58;;;;;;;2.65;1.70;;;;;;;-145.00;87.16;73180.34;5048830;28;20128;-79
2023/08/29 03:03:25;;;;;;;1.90;1.70;;;;;;;-145.00;87.14;73180.34;5056094;28;20045;-80
2023/08/29 03:05:55;;;;;;;2.00;1.70;;;;;;;-145.00;87.02;73172.03;5055961;28;20122;-78
2023/08/29 03:08:21;;;;;;;1.95;1.65;;;;;;;-145.00;87.11;73167.88;5047089;28;20420;-80
2023/08/29 03:10:49;;;;;;;1.90;1.58;;;;;;;-145.00;87.19;73155.38;5051351;28;20048;-79
2023/08/29 03:13:17;;;;;;;2.55;1.90;;;;;;;-145.00;87.14;73155.38;5055497;28;20052;-79
2023/08/29 03:15:44;;;;;;;4.63;2.38;;;;;;;-145.00;86.81;73147.06;5046784;28;20102;-78
2023/08/29 03:18:10;;;;;;;3.38;1.90;;;;;;;-145.00;85.99;73142.88;5047299;28;20125;-79
2023/08/29 03:20:39;;;;;;;2.60;1.80;;;;;;;-145.00;85.72;73161.63;5055733;28;20041;-79
2023/08/29 03:23:06;;;;;;;2.05;1.80;;;;;;;-145.00;85.68;73142.88;5056141;28;20048;-79
2023/08/29 03:25:32;;;;;;;1.90;1.70;;;;;;;-145.00;85.77;73155.38;5055601;28;20036;-78
2023/08/29 03:28:00;;;;;;;2.67;1.98;;;;;;;-145.00;86.20;73155.38;5044193;28;20052;-80
2023/08/29 03:30:28;;;;;;;2.33;1.73;;;;;;;-145.00;86.28;73142.88;5038132;28;20045;-80
2023/08/29 03:32:54;;;;;;;2.30;1.90;;;;;;;-145.00;86.41;73144.97;5035662;28;20045;-79
2023/08/29 03:35:21;;;;;;;3.80;2.13;;;;;;;-145.00;86.08;73138.72;5039781;28;20053;-79
2023/08/29 03:37:47;;;;;;;3.47;2.47;;;;;;;-145.00;85.67;73138.72;5055400;28;20041;-79
2023/08/29 03:40:14;;;;;;;2.30;1.88;;;;;;;-145.00;85.95;73142.88;5055346;28;20037;-79
2023/08/29 03:42:41;;;;;;;2.20;1.77;;;;;;;-145.00;85.46;73138.72;5046010;28;20055;-80
2023/08/29 03:45:09;;;;;;;2.83;1.90;;;;;;;-145.00;85.22;73142.88;5054517;28;20049;-77
2023/08/29 03:47:38;;;;;;;2.33;1.98;;;;;;;-145.00;85.91;73142.88;5049946;28;20041;-79
2023/08/29 03:50:06;;;;;;;2.67;2.00;;;;;;;-145.00;85.89;73132.47;5052244;28;20037;-79
2023/08/29 03:52:33;;;;;;;2.55;2.25;;;;;;;-145.00;86.14;73142.88;5040004;28;20048;-80
2023/08/29 03:54:59;;;;;;;2.38;1.98;;;;;;;-145.00;85.69;73126.22;5046497;28;20112;-80
2023/08/29 03:57:27;;;;;;;3.75;2.10;;;;;;;-145.00;85.03;73124.16;5032069;28;20400;-78
2023/08/29 03:59:53;;;;;;;2.00;1.70;;;;;;;-145.00;85.58;73136.63;5036881;28;20099;-80
2023/08/29 04:02:21;;;;;;;3.75;2.00;;;;;;;-145.00;85.50;73130.41;5029409;28;20072;-79
2023/08/29 04:04:51;;;;;;;3.00;2.45;;;;;;;-145.00;85.61;73134.56;5040157;28;20051;-79
2023/08/29 04:07:18;;;;;;;2.90;2.10;;;;;;;-145.00;85.60;73134.56;5052466;28;20055;-80
2023/08/29 04:09:44;;;;;;;2.78;2.20;;;;;;;-145.00;86.10;73147.06;5025723;28;20045;-80
2023/08/29 04:12:11;;;;;;;3.17;2.50;;;;;;;-145.00;86.44;73163.72;5035183;28;20045;-80
2023/08/29 04:14:37;;;;;;;3.40;2.55;;;;;;;-145.00;86.64;73147.06;5049331;28;20403;-80
2023/08/29 04:17:04;;;;;;;3.72;2.63;;;;;;;-145.00;86.27;73138.72;5055506;28;20554;-80
2023/08/29 04:19:33;;;;;;;3.00;2.58;;;;;;;-145.00;86.04;73130.41;5034122;28;20046;-80
2023/08/29 04:22:00;;;;;;;3.55;2.83;;;;;;;-145.00;85.47;73132.47;5035088;28;20076;-80
2023/08/29 04:24:28;;;;;;;3.65;2.97;;;;;;;-145.00;85.64;73138.72;5043375;28;20579;-80
2023/08/29 04:26:54;;;;;;;4.55;3.33;;;;;;;-145.00;85.78;73134.56;5053954;28;20091;-79
2023/08/29 04:29:21;;;;;;;4.72;3.50;;;;;;;-145.00;86.11;73134.56;5046619;28;20049;-78
2023/08/29 04:31:48;;;;;;;4.35;3.10;;;;;;;-145.00;86.17;73134.56;5055742;28;20044;-79
2023/08/29 04:34:14;;;;;;;4.30;3.50;;;;;;;-145.00;85.52;73134.56;5046427;28;20212;-80
2023/08/29 04:36:42;;;;;;;5.70;3.88;;;;;;;-145.00;86.00;73167.88;5050022;28;20404;-79
2023/08/29 04:39:09;;;;;;;4.57;3.65;;;;;;;-145.00;87.34;73167.88;5047939;28;20049;-79
2023/08/29 04:41:35;;;;;;;4.22;3.53;;;;;;;-145.00;87.44;73192.84;5046623;28;20045;-79
2023/08/29 04:44:02;;;;;;;5.05;3.80;;;;;;;-145.00;88.50;73192.84;5053033;28;20041;-79
2023/08/29 04:46:28;;;;;;;5.85;3.72;;;;;;;-145.00;88.44;73169.94;5060072;28;20100;-79
2023/08/29 04:48:55;;;;;;;4.57;3.78;;;;;;;-145.00;88.43;73180.34;5033835;28;20037;-79
2023/08/29 04:51:22;;;;;;;5.70;4.03;;;;;;;-145.00;89.37;73205.34;5036458;28;20068;-78
2023/08/29 04:53:50;;;;;;;5.10;3.70;;;;;;;-145.00;88.86;73155.38;5036429;28;20095;-80
2023/08/29 04:56:17;;;;;;;4.97;3.85;;;;;;;-145.00;88.28;73151.22;5026759;28;20049;-79
2023/08/29 04:58:43;;;;;;;5.32;4.22;;;;;;;-145.00;87.95;73140.81;5054493;28;20520;-80
2023/08/29 05:01:10;;;;;;;6.45;4.20;;;;;;;-145.00;87.63;73136.63;5030157;28;20493;-78
2023/08/29 05:03:36;;;;;;;4.93;4.00;;;;;;;-145.00;86.59;73138.72;5046060;28;20049;-79
2023/08/29 05:06:03;;;;;;;9.05;4.20;;;;;;;-145.00;86.73;73128.31;5046660;28;20053;-79
2023/08/29 05:08:34;;;;;;;6.35;4.18;;;;;;;-145.00;86.82;73159.53;5056082;28;20048;-79
2023/08/29 05:11:02;;;;;;;5.72;3.90;;;;;;;-145.00;87.40;73163.72;5035190;28;20120;-79
2023/08/29 05:13:29;;;;;;;5.32;3.85;;;;;;;-145.00;87.62;73161.63;5050547;28;20052;-80
2023/08/29 05:15:55;;;;;;;4.97;3.72;;;;;;;-145.00;87.66;73142.88;5045351;28;20049;-79
2023/08/29 05:18:21;;;;;;;5.00;3.50;;;;;;;-145.00;87.28;73142.88;5048878;28;20056;-81
2023/08/29 05:20:48;;;;;;;5.32;3.63;;;;;;;-145.00;86.76;73126.22;5045045;28;20049;-79
2023/08/29 05:23:14;;;;;;;4.80;3.75;;;;;;;-145.00;86.82;73138.72;5050616;28;20041;-80
2023/08/29 05:25:41;;;;;;;4.90;3.97;;;;;;;-145.00;87.48;73157.47;5041158;28;20041;-80
2023/08/29 05:28:09;;;;;;;4.50;3.50;;;;;;;-145.00;87.54;73138.72;5044755;28;20104;-77
2023/08/29 05:30:37;;;;;;;4.75;3.50;;;;;;;-145.00;87.21;73130.41;5034652;28;20055;-79
2023/08/29 05:33:03;;;;;;;4.30;3.47;;;;;;;-145.00;86.95;73122.06;5049273;28;20068;-79
2023/08/29 05:35:30;;;;;;;4.57;3.53;;;;;;;-145.00;86.43;73105.41;5049416;28;20041;-80
2023/08/29 05:37:56;;;;;;;3.60;3.08;;;;;;;-145.00;85.21;73105.41;5051933;28;20505;-81
2023/08/29 05:40:23;;;;;;;3.60;2.95;;;;;;;-145.00;85.38;73107.50;5049206;28;20045;-81
2023/08/29 05:42:49;;;;;;;4.22;3.22;;;;;;;-145.00;85.66;73105.41;5048032;28;20045;-81
2023/08/29 05:45:17;;;;;;;4.10;3.22;;;;;;;-145.00;86.15;73126.22;5043352;28;20046;-82
2023/08/29 05:47:44;;;;;;;3.17;2.80;;;;;;;-145.00;86.52;73124.16;5055665;28;20042;-81
2023/08/29 05:50:10;;;;;;;5.25;3.00;;;;;;;-145.00;86.06;73111.66;5046606;28;20052;-78
2023/08/29 05:52:37;;;;;;;5.35;3.20;;;;;;;-145.00;85.67;73107.50;5035989;28;20508;-77
2023/08/29 05:55:04;;;;;;;3.40;2.88;;;;;;;-145.00;84.87;73097.09;5032850;28;20053;-76
2023/08/29 05:57:31;;;;;;;4.40;3.05;;;;;;;-145.00;84.84;73105.41;5044232;28;20045;-75
2023/08/29 05:59:57;;;;;;;3.45;2.53;;;;;;;-145.00;85.22;73113.75;5040509;28;20084;-76
2023/08/29 06:02:26;;;;;;;3.88;2.67;;;;;;;-145.00;85.70;73111.66;5044836;28;20075;-76
2023/08/29 06:04:53;;;;;;;3.28;2.15;;;;;;;-145.00;85.49;73107.50;5046971;28;20099;-76
2023/08/29 06:07:19;;;;;;;3.67;2.20;;;;;;;-145.00;85.60;73103.31;5046637;28;20083;-75
2023/08/29 06:09:46;;;;;;;2.92;2.45;;;;;;;-145.00;84.47;73092.91;5047085;28;20056;-76
2023/08/29 06:12:12;;;;;;;3.63;2.38;;;;;;;-145.00;83.91;73105.41;5046386;28;20045;-76
2023/08/29 06:14:39;;;;;;;3.97;2.75;;;;;;;-145.00;84.18;73107.50;5046599;28;20060;-76
2023/08/29 06:17:05;;;;;;;2.97;2.42;;;;;;;-145.00;84.81;73109.56;5046605;28;20742;-76
2023/08/29 06:19:33;;;;;;;3.33;2.40;;;;;;;-145.00;83.89;73097.09;5046706;28;20059;-75
2023/08/29 06:22:00;;;;;;;2.97;2.40;;;;;;;-145.00;83.32;73097.09;5046794;28;20067;-75
2023/08/29 06:24:26;;;;;;;4.75;2.38;;;;;;;-145.00;83.86;73128.31;5038581;28;20136;-78
2023/08/29 06:26:52;;;;;;;2.53;2.03;;;;;;;-145.00;84.35;73122.06;5045012;28;20094;-76
2023/08/29 06:29:19;;;;;;;3.45;2.42;;;;;;;-145.00;84.59;73128.31;5044922;28;20053;-76
2023/08/29 06:31:45;;;;;;;2.85;2.35;;;;;;;-145.00;85.05;73126.22;5039534;28;20048;-76
2023/08/29 06:34:12;;;;;;;3.22;2.22;;;;;;;-145.00;84.65;73126.22;5046862;28;20055;-75
2023/08/29 06:36:40;;;;;;;3.60;2.33;;;;;;;-145.00;84.84;73130.41;5051374;28;20068;-76
2023/08/29 06:39:08;;;;;;;4.25;2.40;;;;;;;-145.00;85.06;73134.56;5049073;28;20064;-76
2023/08/29 06:41:34;;;;;;;4.63;2.47;;;;;;;-145.00;85.91;73124.16;5047497;28;20049;-77
2023/08/29 06:44:01;;;;;;;3.47;2.20;;;;;;;-145.00;85.75;73117.91;5056537;28;20041;-76
2023/08/29 06:46:28;;;;;;;3.42;2.30;;;;;;;-145.00;85.61;73109.56;5046311;28;20045;-75
2023/08/29 06:48:54;;;;;;;3.33;2.80;;;;;;;-145.00;84.80;73105.41;5055514;28;20075;-76
2023/08/29 06:51:20;;;;;;;4.05;2.67;;;;;;;-145.00;84.05;73099.16;5038596;28;20045;-78
2023/08/29 06:53:48;;;;;;;3.10;2.67;;;;;;;-145.00;84.60;73119.97;5051345;28;20045;-77
2023/08/29 06:56:15;;;;;;;4.18;2.60;;;;;;;-145.00;86.94;73180.34;5043517;28;20048;-76
2023/08/29 06:58:41;;;;;;;3.20;2.70;;;;;;;-145.00;88.16;73180.34;5050981;28;20052;-78
2023/08/29 07:01:08;;;;;;;3.45;2.70;;;;;;;-145.00;88.11;73172.03;5044488;28;20053;-76
2023/08/29 07:03:34;;;;;;;4.53;3.42;;;;;;;-145.00;87.52;73142.88;5045642;28;20045;-76
2023/08/29 07:06:01;;;;;;;3.58;2.72;;;;;;;-145.00;87.59;73151.22;5045675;28;20524;-78
2023/08/29 07:08:27;;;;;;;3.20;2.40;;;;;;;-145.00;86.27;73128.31;5049588;28;20045;-77
2023/08/29 07:10:55;;;;;;;4.60;2.28;;;;;;;-145.00;85.75;73124.16;5052023;28;20041;-76
2023/08/29 07:13:22;;;;;;;3.17;2.55;;;;;;;-145.00;85.64;73111.66;5049303;28;20055;-78
2023/08/29 07:15:48;;;;;;;3.13;2.30;;;;;;;-145.00;85.61;73117.91;5042247;28;20148;-78
2023/08/29 07:18:15;;;;;;;3.03;2.40;;;;;;;-145.00;85.11;73136.63;5048973;28;20049;-77
2023/08/29 07:20:42;;;;;;;2.92;2.33;;;;;;;-145.00;85.47;73128.31;5048767;28;20048;-75
2023/08/29 07:23:08;;;;;;;2.60;2.20;;;;;;;-145.00;85.33;73128.31;5049563;28;20056;-77
2023/08/29 07:25:40;;;;;;;3.08;2.42;;;;;;;-145.00;86.28;73157.47;5048396;28;20056;-78
2023/08/29 07:28:10;;;;;;;2.90;2.35;;;;;;;-145.00;86.89;73155.38;5050677;28;20053;-78
2023/08/29 07:30:42;;;;;;;2.60;2.17;;;;;;;-145.00;87.58;73167.88;5040916;28;20069;-77
2023/08/29 07:33:10;;;;;;;3.40;2.50;;;;;;;-145.00;86.90;73132.47;5049250;28;20087;-77
2023/08/29 07:35:37;;;;;;;3.50;2.22;;;;;;;-145.00;85.69;73122.06;5049216;28;20051;-76
2023/08/29 07:38:04;;;;;;;2.60;2.20;;;;;;;-145.00;85.06;73122.06;5046504;28;20717;-79
2023/08/29 07:40:32;;;;;;;3.58;2.53;;;;;;;-145.00;84.73;73101.25;5038187;28;20053;-75
2023/08/29 07:42:59;;;;;;;2.70;2.30;;;;;;;-145.00;83.95;73115.81;5049406;28;20052;-76
2023/08/29 07:45:26;;;;;;;2.45;1.85;;;;;;;-145.00;83.51;73113.75;5048830;28;20045;-74
2023/08/29 07:47:53;;;;;;;2.17;1.98;;;;;;;-145.00;83.98;73115.81;5045110;28;20786;-76
2023/08/29 07:50:20;;;;;;;3.80;1.88;;;;;;;-145.00;84.28;73105.41;5045040;28;20044;-76
2023/08/29 07:52:46;;;;;;;2.88;1.75;;;;;;;-145.00;83.89;73105.41;5049595;28;20049;-77
2023/08/29 07:55:16;;;;;;;2.30;1.80;;;;;;;-145.00;83.17;73115.81;5046618;28;20576;-75
2023/08/29 07:57:43;;;;;;;1.80;1.50;;;;;;;-145.00;83.97;73132.47;5048366;28;20103;-75
2023/08/29 08:00:11;;;;;;;1.98;1.40;;;;;;;-145.00;84.40;73126.22;5041515;28;20077;-74
2023/08/29 08:02:39;;;;;;;2.33;1.23;;;;;;;-145.00;83.19;73128.31;5047583;28;20220;-75
2023/08/29 08:05:07;;;;;;;1.95;1.40;;;;;;;-145.00;82.99;73130.41;5048179;28;20136;-75
2023/08/29 08:07:34;;;;;;;2.08;1.70;;;;;;;-145.00;83.93;73147.06;5048069;28;20053;-74
2023/08/29 08:10:01;;;;;;;2.58;1.98;;;;;;;-145.00;84.65;73132.47;5042555;28;20073;-73
2023/08/29 08:12:30;;;;;;;2.17;1.60;;;;;;;-145.00;84.85;73134.56;5048824;28;20045;-73
2023/08/29 08:14:57;;;;;;;2.28;1.42;;;;;;;-145.00;84.96;73128.31;5046987;28;20417;-74
2023/08/29 08:17:23;;;;;;;1.50;1.30;;;;;;;-145.00;84.40;73134.56;5029880;28;20060;-74
2023/08/29 08:19:51;;;;;;;2.00;1.50;;;;;;;-145.00;84.76;73136.63;5030969;28;20048;-73
2023/08/29 08:22:18;;;;;;;2.25;1.60;;;;;;;-145.00;85.44;73128.31;5023441;28;20052;-73
2023/08/29 08:24:44;;;;;;;1.88;1.50;;;;;;;-145.00;84.47;73113.75;5039416;28;20492;-73
2023/08/29 08:27:11;;;;;;;2.55;1.50;;;;;;;-145.00;84.57;73109.56;5042121;28;20081;-73
2023/08/29 08:29:37;;;;;;;1.92;1.60;;;;;;;-145.00;84.46;73105.41;5035258;28;20056;-73
2023/08/29 08:32:04;;;;;;;1.70;1.40;;;;;;;-145.00;84.98;73099.16;5039724;28;20063;-75
2023/08/29 08:34:31;;;;;;;1.70;1.33;;;;;;;-145.00;84.60;73101.25;5048491;28;20053;-74
2023/08/29 08:36:58;;;;;;;1.70;1.30;;;;;;;-145.00;84.07;73109.56;5041105;28;20068;-75
2023/08/29 08:39:25;;;;;;;2.47;1.50;;;;;;;-145.00;84.68;73134.56;5048112;28;20049;-75
2023/08/29 08:41:52;;;;;;;1.58;1.20;;;;;;;-145.00;83.85;73124.16;5041693;28;20049;-73
2023/08/29 08:44:22;;;;;;;1.58;1.30;;;;;;;-145.00;84.73;73138.72;5021294;28;20054;-73
2023/08/29 08:46:49;;;;;;;1.08;0.98;;;;;;;-145.00;84.86;73136.63;5027453;28;20049;-74
2023/08/29 08:49:16;;;;;;;1.48;1.17;;;;;;;-145.00;84.99;73151.22;5042327;28;20049;-75
2023/08/29 08:51:42;;;;;;;1.10;1.00;;;;;;;-145.00;86.36;73192.84;5047856;28;20051;-75
2023/08/29 08:54:11;;;;;;;1.98;1.02;;;;;;;-145.00;85.44;73151.22;5041904;28;20076;-75
2023/08/29 08:56:39;;;;;;;2.03;1.20;;;;;;;-145.00;84.12;73126.22;5040327;28;20049;-74
2023/08/29 08:59:05;;;;;;;1.58;1.17;;;;;;;-145.00;84.84;73126.22;5039454;28;20059;-74
2023/08/29 09:01:32;;;;;;;2.13;1.83;;;;;;;-145.00;85.45;73151.22;5047852;28;20044;-75
2023/08/29 09:03:58;;;;;;;1.80;1.20;;;;;;;-145.00;85.24;73126.22;5044302;28;20314;-76
2023/08/29 09:06:25;;;;;;;1.45;1.13;;;;;;;-145.00;84.75;73130.41;5043519;28;20051;-74
2023/08/29 09:08:52;;;;;;;1.83;1.10;;;;;;;-145.00;84.63;73128.31;5028271;28;20615;-76
2023/08/29 09:11:19;;;;;;;1.98;1.30;;;;;;;-145.00;85.05;73113.75;5024782;28;20053;-73
2023/08/29 09:13:47;;;;;;;1.38;1.10;;;;;;;-145.00;85.10;73130.41;5030157;28;20140;-74
2023/08/29 09:16:14;;;;;;;1.45;1.20;;;;;;;-145.00;84.66;73111.66;5047176;28;20057;-76
2023/08/29 09:18:44;;;;;;;1.30;1.05;;;;;;;-145.00;84.57;73111.66;5035403;28;20045;-75
2023/08/29 09:21:16;;;;;;;1.20;0.98;;;;;;;-145.00;84.66;73126.22;5027823;28;20060;-76
2023/08/29 09:23:43;;;;;;;1.83;1.30;;;;;;;-145.00;84.65;73115.81;5045899;28;20045;-75
2023/08/29 09:26:12;;;;;;;2.25;1.20;;;;;;;-145.00;84.37;73111.66;5047386;28;20049;-75
2023/08/29 09:28:41;;;;;;;3.22;1.30;;;;;;;-145.00;85.46;73113.75;5039339;28;20054;-76
2023/08/29 09:31:09;;;;;;;2.15;1.50;;;;;;;-145.00;85.56;73097.09;5038942;28;20049;-77
2023/08/29 09:33:36;;;;;;;2.55;1.77;;;;;;;-145.00;85.80;73099.16;5047718;28;20528;-74
2023/08/29 09:36:04;;;;;;;2.60;1.60;;;;;;;-145.00;86.12;73115.81;5047082;28;20048;-75
2023/08/29 09:38:32;;;;;;;1.98;1.20;;;;;;;-145.00;84.73;73103.31;5047484;28;20048;-75
2023/08/29 09:40:59;;;;;;;1.50;1.27;;;;;;;-145.00;84.99;73124.16;5047135;28;20813;-75
2023/08/29 09:43:27;;;;;;;2.42;1.40;;;;;;;-145.00;85.18;73119.97;5046937;28;20056;-75
2023/08/29 09:45:56;;;;;;;2.05;1.52;;;;;;;-145.00;85.29;73126.22;5047064;28;20055;-76
2023/08/29 09:48:23;;;;;;;2.33;1.48;;;;;;;-145.00;85.48;73117.91;5047952;28;20412;-78
2023/08/29 09:50:51;;;;;;;1.92;1.67;;;;;;;-145.00;85.64;73101.25;5049246;28;20052;-77
2023/08/29 09:53:19;;;;;;;2.60;1.80;;;;;;;-145.00;85.96;73097.09;5042388;28;20390;-77
2023/08/29 09:55:49;;;;;;;2.28;1.70;;;;;;;-145.00;85.58;73084.59;5048892;28;20110;-78
2023/08/29 09:58:17;;;;;;;2.30;1.90;;;;;;;-145.00;85.82;73072.09;5037940;28;20061;-77
2023/08/29 10:00:44;;;;;;;3.30;2.25;;;;;;;-145.00;85.92;73092.91;5036465;28;20049;-78
2023/08/29 10:03:12;;;;;;;2.20;1.88;;;;;;;-145.00;85.71;73067.94;5040366;28;20053;-75
2023/08/29 10:05:41;;;;;;;3.22;2.55;;;;;;;-145.00;85.81;73067.94;5047573;28;20051;-75
2023/08/29 10:08:24;;;;;;;2.33;1.75;;;;;;;-145.00;85.47;73047.13;5046998;28;20048;-74
2023/08/29 10:10:55;;;;;;;2.55;1.90;;;;;;;-145.00;84.85;73038.78;5047217;28;20104;-75
2023/08/29 10:13:22;;;;;;;2.30;2.00;;;;;;;-145.00;84.35;73042.97;5046740;28;20052;-74
2023/08/29 10:15:49;;;;;;;3.70;2.08;;;;;;;-145.00;85.22;73038.78;5038661;28;20082;-75
2023/08/29 10:18:19;;;;;;;3.03;2.13;;;;;;;-145.00;85.83;73028.38;5046714;28;20053;-73
2023/08/29 10:20:48;;;;;;;2.75;1.70;;;;;;;-145.00;85.16;73028.38;5047742;28;20133;-74
2023/08/29 10:23:19;;;;;;;1.50;1.10;;;;;;;-145.00;85.49;73030.47;5047308;28;20473;-74
2023/08/29 10:25:46;;;;;;;1.17;1.05;;;;;;;-145.00;85.02;73030.47;5041862;28;20045;-73
2023/08/29 10:28:15;;;;;;;1.63;1.10;;;;;;;-145.00;83.80;73030.47;5046718;28;20055;-75
2023/08/29 10:30:45;;;;;;;2.67;1.00;;;;;;;-145.00;83.97;73042.97;5038676;28;20044;-76
2023/08/29 10:33:13;;;;;;;1.20;1.10;;;;;;;-145.00;84.54;73034.63;5047494;28;20049;-76
2023/08/29 10:35:41;;;;;;;1.00;0.90;;;;;;;-145.00;85.69;73076.25;5047486;28;20048;-75
2023/08/29 10:38:12;;;;;;;2.90;1.23;;;;;;;-145.00;87.29;73088.75;5037050;28;20046;-75
2023/08/29 10:40:39;;;;;;;1.48;0.90;;;;;;;-145.00;87.26;73088.75;5047077;28;20520;-74
2023/08/29 10:43:17;;;;;;;2.03;0.75;;;;;;;-145.00;87.07;73082.50;5049063;28;20049;-74
2023/08/29 10:45:47;;;;;;;0.85;0.77;;;;;;;-145.00;86.48;73099.16;5050232;28;20045;-75
2023/08/29 10:48:17;;;;;;;0.63;0.63;;;;;;;-145.00;87.47;73097.09;5040785;28;20053;-75
2023/08/29 10:50:48;;;;;;;1.15;0.80;;;;;;;-145.00;87.88;73109.56;5049574;28;20103;-75
2023/08/29 10:53:23;;;;;;;0.90;0.80;;;;;;;-145.00;85.75;73040.88;5048668;28;20687;-75
2023/08/29 10:56:03;;;;;;;0.82;0.77;;;;;;;-145.00;84.87;73084.59;5044073;28;20041;-75
2023/08/29 10:58:35;;;;;;;1.10;0.93;;;;;;;-145.00;84.67;73047.13;5049305;28;20083;-74
2023/08/29 11:01:02;;;;;;;0.95;0.80;;;;;;;-145.00;84.22;73049.19;5028703;28;20048;-73
2023/08/29 11:03:45;;;;;;;1.00;0.82;;;;;;;-145.00;84.08;73053.38;5049697;28;20103;-74
2023/08/29 11:06:13;;;;;;;1.60;1.30;;;;;;;-145.00;83.24;73026.31;5048716;28;20051;-75
2023/08/29 11:08:40;;;;;;;2.30;1.73;;;;;;;-145.00;84.12;73022.13;5041592;28;20526;-73
2023/08/29 11:11:17;;;;;;;4.50;2.22;;;;;;;-145.00;85.50;73028.38;5032031;28;20064;-75
2023/08/29 11:13:58;;;;;;;3.78;2.13;;;;;;;-145.00;86.70;73005.47;5049651;28;20419;-73
2023/08/29 11:16:24;;;;;;;2.53;2.20;;;;;;;-145.00;87.04;72980.50;5054201;28;20043;-75
2023/08/29 11:19:00;;;;;;;3.05;2.72;;;;;;;-145.00;87.29;72968.00;5054148;28;20045;-76